Time;durP1;ratioP1;P1;durP2;ratioP2;P2;SDS_P1;SDS_P2;PMS_P1;PMS_P2;Temp;Humidity;BMP_temperature;BMP_pressure;BME280_temperature;BME280_humidity;BME280_pressure;Samples;Min_cycle;Max_cycle;Signal;HPM_P1;HPM_P2
2022/12/17 13:06:13;;;;;;;23.87;13.03;;;-2.20;99.90;;;;;;5068948;28;20387;-71
2022/12/17 13:08:40;;;;;;;33.53;15.00;;;-2.20;99.90;;;;;;5069129;28;20298;-71
2022/12/17 13:11:26;;;;;;;31.70;14.97;;;-2.10;99.90;;;;;;5068303;28;20300;-71
2022/12/17 13:13:59;;;;;;;31.93;14.80;;;-2.20;99.90;;;;;;5068711;28;20567;-71
2022/12/17 13:16:33;;;;;;;31.53;13.47;;;-2.20;99.90;;;;;;5083111;28;20254;-71
2022/12/17 13:19:20;;;;;;;33.63;14.20;;;-2.20;99.90;;;;;;5088718;28;20263;-70
2022/12/17 13:21:47;;;;;;;29.10;13.77;;;-2.20;99.90;;;;;;5088297;28;20221;-70
2022/12/17 13:24:25;;;;;;;33.77;14.37;;;-2.10;99.90;;;;;;5088268;28;20214;-71
2022/12/17 13:26:52;;;;;;;30.87;14.27;;;-2.10;99.90;;;;;;5088319;28;20201;-71
2022/12/17 13:29:26;;;;;;;32.87;14.90;;;-2.10;99.90;;;;;;5088170;28;20301;-70
2022/12/17 13:32:05;;;;;;;28.93;14.00;;;-2.10;99.90;;;;;;5088504;28;20202;-71
2022/12/17 13:34:45;;;;;;;29.97;13.87;;;-2.20;99.90;;;;;;5088695;28;20276;-71
2022/12/17 13:37:23;;;;;;;27.77;12.97;;;-2.30;99.90;;;;;;5088500;28;20616;-71
2022/12/17 13:39:56;;;;;;;27.13;12.70;;;-2.30;99.90;;;;;;5088228;28;20194;-71
2022/12/17 13:42:28;;;;;;;28.90;13.60;;;-2.20;99.90;;;;;;5080686;28;20206;-71
2022/12/17 13:44:56;;;;;;;32.83;13.40;;;-2.10;99.90;;;;;;5087143;28;20297;-71
2022/12/17 13:47:26;;;;;;;32.13;13.93;;;-2.00;99.90;;;;;;5081539;28;21092;-71
2022/12/17 13:49:57;;;;;;;30.87;14.17;;;-2.00;99.90;;;;;;5088051;28;20257;-71
2022/12/17 13:52:25;;;;;;;28.47;13.27;;;-1.90;99.90;;;;;;5088033;28;20290;-71
2022/12/17 13:54:52;;;;;;;29.10;13.40;;;-1.90;99.90;;;;;;5087871;28;20298;-70
2022/12/17 13:57:22;;;;;;;32.50;14.90;;;-1.90;99.90;;;;;;5087928;28;20286;-71
2022/12/17 13:59:51;;;;;;;35.00;14.13;;;-1.90;99.90;;;;;;5088367;28;20209;-71
2022/12/17 14:02:26;;;;;;;31.87;14.27;;;-1.90;99.90;;;;;;5067514;28;20712;-71
2022/12/17 14:04:56;;;;;;;30.90;15.13;;;-1.90;99.90;;;;;;5084767;28;20206;-71
2022/12/17 14:07:24;;;;;;;30.57;14.23;;;-2.00;99.90;;;;;;5087708;28;20302;-70
2022/12/17 14:09:52;;;;;;;34.17;15.27;;;-2.10;99.90;;;;;;5087875;28;20301;-71
2022/12/17 14:12:23;;;;;;;36.40;15.20;;;-2.10;99.90;;;;;;5075971;28;20298;-70
2022/12/17 14:14:54;;;;;;;31.77;14.83;;;-2.10;99.90;;;;;;5067690;28;20194;-71
2022/12/17 14:17:23;;;;;;;29.90;14.20;;;-2.20;99.90;;;;;;5067430;28;20207;-71
2022/12/17 14:19:58;;;;;;;28.70;13.83;;;-2.30;99.90;;;;;;5069595;28;20290;-70
2022/12/17 14:22:32;;;;;;;27.00;13.10;;;-2.40;99.90;;;;;;5087584;28;20539;-71
2022/12/17 14:24:59;;;;;;;30.10;14.40;;;-2.40;99.90;;;;;;5087411;28;20228;-71
2022/12/17 14:27:31;;;;;;;29.07;13.03;;;-2.40;99.90;;;;;;5087252;28;20301;-71
2022/12/17 14:29:58;;;;;;;29.27;13.20;;;-2.30;99.90;;;;;;5087518;28;20294;-71
2022/12/17 14:32:32;;;;;;;29.00;13.13;;;-2.30;99.90;;;;;;5087613;28;20293;-71
2022/12/17 14:35:00;;;;;;;28.67;12.70;;;-2.40;99.90;;;;;;5087333;28;20288;-71
2022/12/17 14:37:28;;;;;;;28.90;13.03;;;-2.30;99.90;;;;;;5087497;28;20367;-71
2022/12/17 14:40:01;;;;;;;29.20;13.03;;;-2.40;99.90;;;;;;5087385;28;20296;-70
2022/12/17 14:42:29;;;;;;;30.57;13.83;;;-2.50;99.90;;;;;;5087429;28;20345;-71
2022/12/17 14:44:58;;;;;;;28.00;12.93;;;-2.40;99.90;;;;;;5087013;28;20208;-71
2022/12/17 14:47:27;;;;;;;24.77;12.37;;;-2.40;99.90;;;;;;5081074;28;20251;-70
2022/12/17 14:49:58;;;;;;;20.90;11.37;;;-2.40;99.90;;;;;;5069403;28;20247;-71
2022/12/17 14:52:39;;;;;;;26.37;12.73;;;-2.40;99.90;;;;;;5087277;28;20285;-71
2022/12/17 14:55:27;;;;;;;25.77;12.37;;;-2.40;99.90;;;;;;5066742;28;20253;-71
2022/12/17 14:58:06;;;;;;;27.37;12.23;;;-2.50;99.90;;;;;;5081878;28;20229;-71
2022/12/17 15:00:33;;;;;;;26.43;11.87;;;-2.50;99.90;;;;;;5087470;28;20271;-71
2022/12/17 15:03:00;;;;;;;26.43;12.27;;;-2.50;99.90;;;;;;5087130;28;20205;-71
2022/12/17 15:05:27;;;;;;;32.40;12.53;;;-2.50;99.90;;;;;;5086932;28;20300;-71
2022/12/17 15:07:55;;;;;;;25.40;11.23;;;-2.60;99.90;;;;;;5086875;28;20211;-71
2022/12/17 15:10:22;;;;;;;24.53;11.93;;;-2.70;99.90;;;;;;5087189;28;20216;-71
2022/12/17 15:12:51;;;;;;;28.73;13.13;;;-2.70;99.90;;;;;;5087356;28;20395;-71
2022/12/17 15:15:19;;;;;;;25.43;11.77;;;-2.70;99.90;;;;;;5086862;28;20211;-71
2022/12/17 15:17:46;;;;;;;33.10;13.10;;;-2.70;99.90;;;;;;5087124;28;20555;-71
2022/12/17 15:20:17;;;;;;;25.97;13.17;;;-2.70;99.90;;;;;;5087271;28;20275;-71
2022/12/17 15:22:43;;;;;;;31.37;13.47;;;-2.70;99.90;;;;;;5087251;28;20282;-71
2022/12/17 15:25:14;;;;;;;30.80;13.87;;;-2.70;99.90;;;;;;5088122;28;20211;-71
2022/12/17 15:27:41;;;;;;;28.63;13.47;;;-2.70;99.90;;;;;;5090924;28;20652;-71
2022/12/17 15:30:13;;;;;;;29.83;14.17;;;-2.70;99.90;;;;;;5090802;28;20992;-71
2022/12/17 15:32:40;;;;;;;29.83;13.80;;;-2.70;99.90;;;;;;5090861;28;20728;-71
2022/12/17 15:35:08;;;;;;;32.63;14.40;;;-2.70;99.90;;;;;;5090872;28;20303;-71
2022/12/17 15:37:35;;;;;;;32.30;14.40;;;-2.70;99.90;;;;;;5090890;28;20319;-71
2022/12/17 15:40:02;;;;;;;35.00;14.40;;;-2.60;99.90;;;;;;5090294;28;20272;-71
2022/12/17 15:45:15;;;;;;;32.53;13.83;;;-2.70;99.90;;;;;;5070137;28;20204;-71
2022/12/17 15:47:42;;;;;;;32.77;14.80;;;-2.70;99.90;;;;;;5069729;28;20716;-71
2022/12/17 15:50:09;;;;;;;35.50;14.43;;;-2.70;99.90;;;;;;5079731;28;20888;-71
2022/12/17 15:52:36;;;;;;;33.87;14.50;;;-2.80;99.90;;;;;;5090070;28;20671;-71
2022/12/17 15:55:03;;;;;;;43.60;15.60;;;-2.80;99.90;;;;;;5090320;28;20289;-71
2022/12/17 15:57:31;;;;;;;36.47;15.97;;;-2.70;99.90;;;;;;5090287;28;20700;-71
2022/12/17 15:59:58;;;;;;;33.57;14.57;;;-2.70;99.90;;;;;;5090124;28;20237;-71
2022/12/17 16:02:25;;;;;;;33.40;14.40;;;-2.70;99.90;;;;;;5090202;28;20244;-71
2022/12/17 16:04:52;;;;;;;34.20;15.30;;;-2.70;99.90;;;;;;5090424;28;20251;-71
2022/12/17 16:07:19;;;;;;;34.07;14.83;;;-2.70;99.90;;;;;;5089817;28;20217;-71
2022/12/17 16:09:46;;;;;;;38.37;16.90;;;-2.70;99.90;;;;;;5090101;28;20717;-71
2022/12/17 16:12:13;;;;;;;38.57;16.17;;;-2.60;99.90;;;;;;5090341;28;20299;-71
2022/12/17 16:14:41;;;;;;;34.40;15.00;;;-2.60;99.90;;;;;;5089887;28;20209;-71
2022/12/17 16:17:08;;;;;;;35.90;17.27;;;-2.70;99.90;;;;;;5089827;28;20241;-71
2022/12/17 16:19:35;;;;;;;34.80;15.43;;;-2.70;99.90;;;;;;5089624;28;21001;-71
2022/12/17 16:22:02;;;;;;;32.90;15.33;;;-2.70;99.90;;;;;;5069830;28;20215;-71
2022/12/17 16:24:29;;;;;;;32.97;15.47;;;-2.70;99.90;;;;;;5069602;28;20293;-71
2022/12/17 16:26:56;;;;;;;33.57;15.40;;;-2.60;99.90;;;;;;5069820;28;20294;-72
2022/12/17 16:29:22;;;;;;;36.40;16.13;;;-2.60;99.90;;;;;;5069313;28;20679;-71
2022/12/17 16:31:51;;;;;;;34.13;16.57;;;-2.60;99.90;;;;;;5069850;28;20233;-71
2022/12/17 16:34:18;;;;;;;33.00;15.67;;;-2.60;99.90;;;;;;5069498;28;20262;-71
2022/12/17 16:36:44;;;;;;;40.43;17.30;;;-2.60;99.90;;;;;;5074506;28;20211;-71
2022/12/17 16:39:16;;;;;;;41.27;19.47;;;-2.70;99.90;;;;;;5074706;28;20347;-71
2022/12/17 16:41:44;;;;;;;44.23;20.43;;;-2.70;99.90;;;;;;5069587;28;20620;-71
2022/12/17 16:44:11;;;;;;;41.60;19.17;;;-2.70;99.90;;;;;;5069273;28;20215;-71
2022/12/17 16:46:39;;;;;;;32.20;15.47;;;-2.60;99.90;;;;;;5080899;28;20316;-71
2022/12/17 16:49:10;;;;;;;30.33;14.80;;;-2.60;99.90;;;;;;5068964;28;21029;-71
2022/12/17 16:51:36;;;;;;;27.63;13.50;;;-2.60;99.90;;;;;;5085705;28;20605;-71
2022/12/17 16:54:14;;;;;;;30.87;14.70;;;-2.50;99.90;;;;;;5089041;28;20201;-71
2022/12/17 16:56:42;;;;;;;33.70;16.07;;;-2.50;99.90;;;;;;5088924;28;20199;-71
2022/12/17 16:59:10;;;;;;;39.73;19.77;;;-2.50;99.90;;;;;;5088855;28;20324;-71
2022/12/17 17:01:38;;;;;;;32.43;16.27;;;-2.50;99.90;;;;;;5089191;28;20660;-71
2022/12/17 17:04:05;;;;;;;34.17;16.93;;;-2.50;99.90;;;;;;5089238;28;20292;-71
2022/12/17 17:06:38;;;;;;;38.63;19.00;;;-2.40;99.90;;;;;;5089198;28;20224;-71
2022/12/17 17:09:05;;;;;;;49.87;22.97;;;-2.40;99.90;;;;;;5088785;28;20233;-71
2022/12/17 17:11:33;;;;;;;35.47;16.57;;;-2.50;99.90;;;;;;5089304;28;20555;-71
2022/12/17 17:14:00;;;;;;;35.33;18.07;;;-2.60;99.90;;;;;;5089009;28;20292;-71
2022/12/17 17:16:27;;;;;;;40.37;18.47;;;-2.60;99.90;;;;;;5089159;28;20236;-71
2022/12/17 17:18:54;;;;;;;31.93;15.60;;;-2.60;99.90;;;;;;5088754;28;20269;-71
2022/12/17 17:21:27;;;;;;;30.43;15.23;;;-2.50;99.90;;;;;;5089150;28;20213;-71
2022/12/17 17:23:58;;;;;;;31.87;14.97;;;-2.50;99.90;;;;;;5088993;28;20284;-71
2022/12/17 17:26:25;;;;;;;31.67;15.67;;;-2.50;99.90;;;;;;5088895;28;20279;-71
2022/12/17 17:28:52;;;;;;;29.77;14.50;;;-2.40;99.90;;;;;;5088428;28;20300;-71
2022/12/17 17:31:20;;;;;;;31.70;15.23;;;-2.40;99.90;;;;;;5088929;28;20215;-71
2022/12/17 17:33:49;;;;;;;31.93;16.70;;;-2.40;99.90;;;;;;5088330;28;20244;-71
2022/12/17 17:36:18;;;;;;;29.93;15.90;;;-2.40;99.90;;;;;;5088272;28;20437;-71
2022/12/17 17:38:47;;;;;;;32.73;16.10;;;-2.50;99.90;;;;;;5088067;28;20770;-71
2022/12/17 17:41:17;;;;;;;25.90;14.67;;;-2.60;99.90;;;;;;5088461;28;20242;-71
2022/12/17 17:43:45;;;;;;;26.97;13.30;;;-2.60;99.90;;;;;;5088297;28;20311;-71
2022/12/17 17:46:14;;;;;;;26.93;13.23;;;-2.60;99.90;;;;;;5088345;28;20611;-71
2022/12/17 17:48:41;;;;;;;23.77;13.80;;;-2.60;99.90;;;;;;5070789;28;20872;-71
2022/12/17 17:51:11;;;;;;;24.13;13.07;;;-2.50;99.90;;;;;;5080414;28;20513;-70
2022/12/17 17:53:37;;;;;;;24.53;13.70;;;-2.50;99.90;;;;;;5088118;28;20304;-70
2022/12/17 17:56:06;;;;;;;20.77;13.30;;;-2.50;99.90;;;;;;5087515;28;20751;-70
2022/12/17 17:58:34;;;;;;;23.93;14.10;;;-2.50;99.90;;;;;;5088069;28;20317;-70
2022/12/17 18:01:08;;;;;;;24.33;13.37;;;-2.50;99.90;;;;;;5087532;28;20808;-72
2022/12/17 18:03:34;;;;;;;20.40;12.20;;;-2.50;99.90;;;;;;5088197;28;20293;-70
2022/12/17 18:06:02;;;;;;;28.17;12.60;;;-2.60;99.90;;;;;;5088215;28;20204;-70
2022/12/17 18:08:30;;;;;;;22.33;11.93;;;-2.80;99.90;;;;;;5087863;28;20199;-70
2022/12/17 18:10:58;;;;;;;21.97;11.80;;;-2.90;99.90;;;;;;5087669;28;20212;-70
2022/12/17 18:16:16;;;;;;;25.50;12.97;;;-2.90;99.90;;;;;;5076494;28;20198;-70
2022/12/17 18:18:44;;;;;;;23.50;12.80;;;-2.90;99.90;;;;;;5087427;28;20205;-70
2022/12/17 18:21:12;;;;;;;23.13;12.30;;;-2.90;99.90;;;;;;5074781;28;20251;-70
2022/12/17 18:23:39;;;;;;;23.10;12.00;;;-2.90;99.90;;;;;;5075882;28;20209;-70
2022/12/17 18:26:08;;;;;;;22.27;12.67;;;-2.80;99.90;;;;;;5087076;28;20852;-70
2022/12/17 18:28:36;;;;;;;27.03;14.00;;;-2.90;99.90;;;;;;5087307;28;20649;-70
2022/12/17 18:31:08;;;;;;;25.73;13.83;;;-3.00;99.90;;;;;;5067197;28;20247;-70
2022/12/17 18:33:38;;;;;;;22.33;11.87;;;-3.00;99.90;;;;;;5067124;28;20206;-72
2022/12/17 18:36:10;;;;;;;20.57;11.90;;;-2.90;99.90;;;;;;5067388;28;20279;-72
2022/12/17 18:38:38;;;;;;;21.50;12.87;;;-2.90;99.90;;;;;;5075002;28;20299;-70
2022/12/17 18:43:21;;;;;;;20.87;11.87;;;-2.80;99.90;;;;;;5087153;28;20227;-70
2022/12/17 18:43:53;;;;;;;22.93;13.13;;;-2.80;99.90;;;;;;5067155;28;20536;-70
2022/12/17 18:46:19;;;;;;;19.83;12.30;;;-2.70;99.90;;;;;;5067425;28;20254;-71
2022/12/17 18:48:50;;;;;;;24.00;13.47;;;-2.80;99.90;;;;;;5083758;28;20233;-71
2022/12/17 18:51:17;;;;;;;26.47;13.70;;;-2.80;99.90;;;;;;5073440;28;20251;-70
2022/12/17 18:53:44;;;;;;;21.77;11.33;;;-2.90;99.90;;;;;;5079718;28;20553;-70
2022/12/17 18:56:11;;;;;;;24.80;11.43;;;-2.90;99.90;;;;;;5087170;28;20244;-70
2022/12/17 18:58:39;;;;;;;21.50;11.63;;;-2.80;99.90;;;;;;5087462;28;20297;-70
2022/12/17 19:01:06;;;;;;;20.33;11.43;;;-2.80;99.90;;;;;;5090259;28;20279;-70
2022/12/17 19:03:33;;;;;;;20.70;11.70;;;-2.80;99.90;;;;;;5091838;28;20211;-70
2022/12/17 19:06:06;;;;;;;20.97;11.50;;;-2.80;99.90;;;;;;5091554;28;20257;-71
2022/12/17 19:08:35;;;;;;;23.03;11.97;;;-2.80;99.90;;;;;;5090747;28;20290;-70
2022/12/17 19:11:05;;;;;;;20.63;11.47;;;-2.70;99.90;;;;;;5091184;28;20219;-71
2022/12/17 19:13:32;;;;;;;21.03;11.53;;;-2.70;99.90;;;;;;5091452;28;20194;-70
2022/12/17 19:16:05;;;;;;;17.60;10.60;;;-2.70;99.90;;;;;;5091350;28;20212;-70
2022/12/17 19:18:32;;;;;;;20.63;11.23;;;-2.70;99.90;;;;;;5091065;28;20228;-70
2022/12/17 19:20:59;;;;;;;22.57;11.33;;;-2.70;99.90;;;;;;5090620;28;20248;-70
2022/12/17 19:23:31;;;;;;;20.10;10.93;;;-2.70;99.90;;;;;;5084120;28;20266;-71
2022/12/17 19:26:05;;;;;;;20.13;11.20;;;-2.70;99.90;;;;;;5079396;28;20288;-70
2022/12/17 19:28:32;;;;;;;23.90;11.33;;;-2.70;99.90;;;;;;5071389;28;20659;-70
2022/12/17 19:30:59;;;;;;;20.30;10.20;;;-2.70;99.90;;;;;;5070641;28;20300;-72
2022/12/17 19:33:26;;;;;;;19.67;10.80;;;-2.80;99.90;;;;;;5070162;28;20307;-70
2022/12/17 19:35:59;;;;;;;19.63;10.50;;;-2.80;99.90;;;;;;5085877;28;20742;-70
2022/12/17 19:38:27;;;;;;;20.20;11.00;;;-2.80;99.90;;;;;;5090102;28;20288;-72
2022/12/17 19:40:54;;;;;;;21.17;10.67;;;-2.80;99.90;;;;;;5089973;28;20323;-70
2022/12/17 19:43:21;;;;;;;17.67;9.93;;;-2.90;99.90;;;;;;5090286;28;20258;-70
2022/12/17 19:45:49;;;;;;;16.60;9.93;;;-2.90;99.90;;;;;;5090504;28;20200;-70
2022/12/17 19:48:16;;;;;;;19.67;10.33;;;-2.80;99.90;;;;;;5076737;28;20393;-70
2022/12/17 19:50:43;;;;;;;20.30;10.23;;;-2.80;99.90;;;;;;5088555;28;20307;-70
2022/12/17 19:53:10;;;;;;;20.13;10.03;;;-2.80;99.90;;;;;;5090282;28;20663;-70
2022/12/17 19:55:39;;;;;;;23.57;10.47;;;-2.90;99.90;;;;;;5089919;28;20695;-70
2022/12/17 19:58:05;;;;;;;21.47;11.03;;;-2.90;99.90;;;;;;5090187;28;20235;-70
2022/12/17 20:00:35;;;;;;;19.93;10.17;;;-3.00;99.90;;;;;;5090023;28;20326;-70
2022/12/17 20:03:02;;;;;;;18.17;9.83;;;-3.00;99.90;;;;;;5090105;28;20523;-70
2022/12/17 20:05:29;;;;;;;21.00;10.97;;;-3.00;99.90;;;;;;5089905;28;20292;-69
2022/12/17 20:07:55;;;;;;;20.13;10.90;;;-3.00;99.90;;;;;;5089755;28;20288;-70
2022/12/17 20:10:22;;;;;;;17.63;10.10;;;-3.00;99.90;;;;;;5088912;28;20269;-70
2022/12/17 20:12:51;;;;;;;15.77;9.10;;;-3.00;99.90;;;;;;5089926;28;20246;-70
2022/12/17 20:15:17;;;;;;;16.37;9.50;;;-3.00;99.90;;;;;;5089247;28;20294;-70
2022/12/17 20:17:44;;;;;;;17.57;10.23;;;-3.00;99.90;;;;;;5090030;28;20239;-70
2022/12/17 20:20:12;;;;;;;18.03;10.17;;;-2.90;99.90;;;;;;5089474;28;20338;-70
2022/12/17 20:22:38;;;;;;;16.47;9.40;;;-3.00;99.90;;;;;;5088013;28;20733;-70
2022/12/17 20:25:08;;;;;;;15.87;9.77;;;-3.00;99.90;;;;;;5069076;28;20243;-70
2022/12/17 20:27:35;;;;;;;17.57;10.07;;;-3.00;99.90;;;;;;5069625;28;20220;-72
2022/12/17 20:30:04;;;;;;;17.43;10.10;;;-3.00;99.90;;;;;;5069243;28;20309;-71
2022/12/17 20:32:34;;;;;;;18.93;10.23;;;-3.00;99.90;;;;;;5088543;28;20204;-72
2022/12/17 20:35:01;;;;;;;19.50;10.07;;;-3.00;99.90;;;;;;5089164;28;20861;-72
2022/12/17 20:37:28;;;;;;;20.70;10.80;;;-3.00;99.90;;;;;;5089452;28;20300;-70
2022/12/17 20:39:55;;;;;;;15.97;9.60;;;-3.00;99.90;;;;;;5089188;28;20321;-70
2022/12/17 20:42:22;;;;;;;17.30;9.93;;;-3.00;99.90;;;;;;5089187;28;20238;-70
2022/12/17 20:44:49;;;;;;;18.97;9.97;;;-3.10;99.90;;;;;;5089153;28;20651;-72
2022/12/17 20:47:17;;;;;;;17.97;10.30;;;-3.10;99.90;;;;;;5084189;28;21047;-70
2022/12/17 20:49:44;;;;;;;19.00;10.53;;;-3.10;99.90;;;;;;5069635;28;20300;-70
2022/12/17 20:52:11;;;;;;;20.53;11.20;;;-3.10;99.90;;;;;;5088872;28;20203;-71
2022/12/17 20:54:38;;;;;;;19.07;10.60;;;-3.10;99.90;;;;;;5088901;28;20208;-70
2022/12/17 20:57:05;;;;;;;20.20;11.13;;;-3.10;99.90;;;;;;5088772;28;20266;-70
2022/12/17 20:59:32;;;;;;;18.73;10.83;;;-3.10;99.90;;;;;;5088580;28;20717;-70
2022/12/17 21:01:58;;;;;;;18.20;10.90;;;-3.10;99.90;;;;;;5089118;28;20223;-70
2022/12/17 21:04:27;;;;;;;18.47;10.73;;;-3.10;99.90;;;;;;5089057;28;20232;-70
2022/12/17 21:06:54;;;;;;;18.87;11.13;;;-3.10;99.90;;;;;;5089131;28;20210;-70
2022/12/17 21:09:24;;;;;;;18.73;11.00;;;-3.10;99.90;;;;;;5088406;28;20246;-70
2022/12/17 21:11:50;;;;;;;19.00;10.70;;;-3.10;99.90;;;;;;5088619;28;20664;-70
2022/12/17 21:14:18;;;;;;;17.07;10.37;;;-3.00;99.90;;;;;;5088542;28;20236;-70
2022/12/17 21:16:46;;;;;;;18.63;10.40;;;-3.00;99.90;;;;;;5088650;28;20290;-70
2022/12/17 21:19:15;;;;;;;16.23;10.37;;;-3.10;99.90;;;;;;5084559;28;20572;-70
2022/12/17 21:21:44;;;;;;;18.03;10.53;;;-3.10;99.90;;;;;;5068329;28;20327;-70
2022/12/17 21:24:11;;;;;;;16.83;10.13;;;-3.10;99.90;;;;;;5080349;28;20256;-70
2022/12/17 21:26:39;;;;;;;15.17;10.13;;;-3.10;99.90;;;;;;5088537;28;20298;-70
2022/12/17 21:29:08;;;;;;;16.43;9.70;;;-3.10;99.90;;;;;;5088159;28;20214;-71
2022/12/17 21:31:39;;;;;;;14.73;9.20;;;-3.20;99.90;;;;;;5088362;28;20650;-70
2022/12/17 21:34:07;;;;;;;13.00;8.50;;;-3.20;99.90;;;;;;5088490;28;20278;-69
2022/12/17 21:36:35;;;;;;;13.07;8.90;;;-3.20;99.90;;;;;;5088386;28;20745;-70
2022/12/17 21:39:06;;;;;;;12.93;8.97;;;-3.20;99.90;;;;;;5088315;28;20299;-70
2022/12/17 21:41:35;;;;;;;13.43;9.13;;;-3.20;99.90;;;;;;5083634;28;20218;-70
2022/12/17 21:44:04;;;;;;;16.43;9.10;;;-3.20;99.90;;;;;;5068134;28;20266;-70
2022/12/17 21:46:32;;;;;;;15.27;8.90;;;-3.40;99.90;;;;;;5067996;28;20271;-70
2022/12/17 21:49:00;;;;;;;14.33;9.03;;;-3.40;99.90;;;;;;5067588;28;20287;-70
2022/12/17 21:51:28;;;;;;;15.03;9.77;;;-3.40;99.90;;;;;;5082416;28;20272;-70
2022/12/17 21:53:57;;;;;;;15.67;8.60;;;-3.40;99.90;;;;;;5088009;28;20290;-70
2022/12/17 21:56:25;;;;;;;14.97;9.60;;;-3.40;99.90;;;;;;5087850;28;20210;-70
2022/12/17 21:58:57;;;;;;;15.07;9.87;;;-3.30;99.90;;;;;;5087748;28;20648;-70
2022/12/17 22:01:26;;;;;;;17.43;10.27;;;-3.30;99.90;;;;;;5087352;28;20691;-70
2022/12/17 22:03:54;;;;;;;18.00;10.70;;;-3.30;99.90;;;;;;5087744;28;20298;-70
2022/12/17 22:06:23;;;;;;;17.47;10.17;;;-3.30;99.90;;;;;;5087775;28;20214;-70
2022/12/17 22:08:50;;;;;;;19.70;10.83;;;-3.30;99.90;;;;;;5087598;28;20295;-70
2022/12/17 22:11:19;;;;;;;18.70;10.10;;;-3.30;99.90;;;;;;5087668;28;20244;-70
2022/12/17 22:14:02;;;;;;;18.30;10.13;;;-3.30;99.90;;;;;;5087660;28;20290;-70
2022/12/17 22:16:34;;;;;;;17.57;10.27;;;-3.30;99.90;;;;;;5075049;28;20215;-70
2022/12/17 22:19:03;;;;;;;16.73;9.77;;;-3.30;99.90;;;;;;5067499;28;20218;-70
2022/12/17 22:21:33;;;;;;;19.33;11.53;;;-3.40;99.90;;;;;;5082225;28;20240;-70
2022/12/17 22:24:00;;;;;;;18.83;11.23;;;-3.40;99.90;;;;;;5087029;28;20217;-70
2022/12/17 22:26:27;;;;;;;18.10;10.07;;;-3.40;99.90;;;;;;5087111;28;20212;-70
2022/12/17 22:28:56;;;;;;;17.50;10.97;;;-3.50;99.90;;;;;;5087297;28;20203;-70
2022/12/17 22:34:10;;;;;;;16.80;10.43;;;-3.70;99.90;;;;;;5087017;28;20186;-70
2022/12/17 22:36:37;;;;;;;17.50;10.43;;;-3.60;99.90;;;;;;5087467;28;20206;-70
2022/12/17 22:39:06;;;;;;;18.80;10.90;;;-3.60;99.90;;;;;;5086521;28;20199;-70
2022/12/17 22:44:19;;;;;;;19.50;11.07;;;-3.60;99.90;;;;;;5086902;28;20718;-70
2022/12/17 22:46:46;;;;;;;16.53;10.03;;;-3.60;99.90;;;;;;5086941;28;20229;-70
2022/12/17 22:49:14;;;;;;;17.83;10.57;;;-3.50;99.90;;;;;;5087436;28;20272;-69
2022/12/17 22:51:42;;;;;;;19.07;11.10;;;-3.50;99.90;;;;;;5087256;28;20334;-70
2022/12/17 22:54:09;;;;;;;18.87;10.63;;;-3.50;99.90;;;;;;5087125;28;20641;-70
2022/12/17 22:56:37;;;;;;;18.90;10.87;;;-3.70;99.90;;;;;;5087159;28;20206;-69
2022/12/17 22:59:04;;;;;;;19.40;10.27;;;-3.70;99.90;;;;;;5087376;28;20286;-69
2022/12/17 23:01:33;;;;;;;20.90;11.93;;;-3.60;99.90;;;;;;5087259;28;20238;-70
2022/12/17 23:04:02;;;;;;;23.40;11.60;;;-3.70;99.90;;;;;;5087084;28;20330;-70
2022/12/17 23:06:29;;;;;;;23.57;12.10;;;-3.60;99.90;;;;;;5087280;28;20244;-70
2022/12/17 23:08:57;;;;;;;22.73;12.07;;;-3.60;99.90;;;;;;5086873;28;20784;-70
2022/12/17 23:11:27;;;;;;;21.10;11.90;;;-3.60;99.90;;;;;;5086949;28;20839;-70
2022/12/17 23:13:54;;;;;;;19.57;11.77;;;-3.60;99.90;;;;;;5087402;28;20301;-70
2022/12/17 23:16:21;;;;;;;20.50;11.80;;;-3.60;99.90;;;;;;5086916;28;20754;-70
2022/12/17 23:18:51;;;;;;;22.37;12.23;;;-3.60;99.90;;;;;;5087238;28;20290;-70
2022/12/17 23:21:19;;;;;;;20.23;11.43;;;-3.50;99.90;;;;;;5081849;28;20270;-70
2022/12/17 23:23:47;;;;;;;22.03;12.00;;;-3.50;99.90;;;;;;5077691;28;20296;-71
2022/12/17 23:26:16;;;;;;;22.23;11.57;;;-3.50;99.90;;;;;;5066706;28;20283;-69
2022/12/17 23:28:43;;;;;;;20.87;12.17;;;-3.60;99.90;;;;;;5067254;28;20674;-71
2022/12/17 23:31:11;;;;;;;25.10;12.37;;;-3.50;99.90;;;;;;5066222;28;20302;-71
2022/12/17 23:33:38;;;;;;;23.03;11.67;;;-3.60;99.90;;;;;;5068078;28;20246;-72
2022/12/17 23:36:09;;;;;;;21.97;12.23;;;-3.60;99.90;;;;;;5087044;28;20211;-71
2022/12/17 23:38:36;;;;;;;22.87;11.30;;;-3.60;99.90;;;;;;5086762;28;20314;-71
2022/12/17 23:41:04;;;;;;;21.23;11.53;;;-3.60;99.90;;;;;;5086926;28;20230;-71
2022/12/17 23:43:32;;;;;;;19.97;11.07;;;-3.60;99.90;;;;;;5086670;28;20654;-72
2022/12/17 23:45:59;;;;;;;18.70;11.10;;;-3.60;99.90;;;;;;5087822;28;20283;-71
2022/12/17 23:48:30;;;;;;;21.20;11.33;;;-3.60;99.90;;;;;;5090235;28;20334;-72
2022/12/17 23:50:57;;;;;;;19.47;11.10;;;-3.60;99.90;;;;;;5079794;28;20226;-71
2022/12/17 23:53:25;;;;;;;21.90;11.87;;;-3.70;99.90;;;;;;5070231;28;20580;-71
2022/12/17 23:55:53;;;;;;;21.80;11.80;;;-3.70;99.90;;;;;;5069806;28;20247;-71
2022/12/17 23:58:20;;;;;;;21.83;12.47;;;-3.70;99.90;;;;;;5070241;28;20279;-71
